sensor_id;sensor_type;location;lat;lon;timestamp;P1;durP1;ratioP1;P2;durP2;ratioP2
57826;SDS011;43656;57.746;11.780;2023-04-24T00:01:14;31.50;;;23.08;;
57826;SDS011;43656;57.746;11.780;2023-04-24T00:03:42;32.50;;;23.10;;
57826;SDS011;43656;57.746;11.780;2023-04-24T00:06:07;29.92;;;24.10;;
57826;SDS011;43656;57.746;11.780;2023-04-24T00:08:34;30.02;;;23.88;;
57826;SDS011;43656;57.746;11.780;2023-04-24T00:11:00;31.00;;;23.63;;
57826;SDS011;43656;57.746;11.780;2023-04-24T00:13:25;30.95;;;22.92;;
57826;SDS011;43656;57.746;11.780;2023-04-24T00:15:51;28.10;;;22.60;;
57826;SDS011;43656;57.746;11.780;2023-04-24T00:18:16;31.90;;;23.17;;
57826;SDS011;43656;57.746;11.780;2023-04-24T00:20:42;31.38;;;23.00;;
57826;SDS011;43656;57.746;11.780;2023-04-24T00:23:08;27.98;;;22.88;;
57826;SDS011;43656;57.746;11.780;2023-04-24T00:25:34;32.42;;;24.27;;
57826;SDS011;43656;57.746;11.780;2023-04-24T00:27:59;31.95;;;22.45;;
57826;SDS011;43656;57.746;11.780;2023-04-24T00:30:25;32.63;;;23.52;;
57826;SDS011;43656;57.746;11.780;2023-04-24T00:32:50;34.65;;;24.92;;
57826;SDS011;43656;57.746;11.780;2023-04-24T00:35:16;27.77;;;23.92;;
57826;SDS011;43656;57.746;11.780;2023-04-24T00:37:41;32.08;;;24.45;;
57826;SDS011;43656;57.746;11.780;2023-04-24T00:40:07;29.95;;;25.15;;
57826;SDS011;43656;57.746;11.780;2023-04-24T00:42:33;30.20;;;24.20;;
57826;SDS011;43656;57.746;11.780;2023-04-24T00:44:58;30.30;;;24.27;;
57826;SDS011;43656;57.746;11.780;2023-04-24T00:47:25;33.00;;;24.60;;
57826;SDS011;43656;57.746;11.780;2023-04-24T00:49:52;32.10;;;24.92;;
57826;SDS011;43656;57.746;11.780;2023-04-24T00:52:17;32.40;;;25.30;;
57826;SDS011;43656;57.746;11.780;2023-04-24T00:54:46;32.15;;;25.88;;
57826;SDS011;43656;57.746;11.780;2023-04-24T00:57:12;34.83;;;26.80;;
57826;SDS011;43656;57.746;11.780;2023-04-24T00:59:40;37.15;;;26.05;;
57826;SDS011;43656;57.746;11.780;2023-04-24T01:02:07;41.95;;;27.73;;
57826;SDS011;43656;57.746;11.780;2023-04-24T01:04:34;37.97;;;27.38;;
57826;SDS011;43656;57.746;11.780;2023-04-24T01:07:00;35.40;;;26.77;;
57826;SDS011;43656;57.746;11.780;2023-04-24T01:09:25;35.67;;;27.27;;
57826;SDS011;43656;57.746;11.780;2023-04-24T01:11:51;34.55;;;26.60;;
57826;SDS011;43656;57.746;11.780;2023-04-24T01:14:18;34.58;;;25.40;;
57826;SDS011;43656;57.746;11.780;2023-04-24T01:16:43;32.17;;;25.40;;
57826;SDS011;43656;57.746;11.780;2023-04-24T01:19:09;34.15;;;25.48;;
57826;SDS011;43656;57.746;11.780;2023-04-24T01:21:36;32.97;;;26.10;;
57826;SDS011;43656;57.746;11.780;2023-04-24T01:24:03;33.67;;;25.92;;
57826;SDS011;43656;57.746;11.780;2023-04-24T01:26:30;33.25;;;25.70;;
57826;SDS011;43656;57.746;11.780;2023-04-24T01:28:56;33.28;;;25.27;;
57826;SDS011;43656;57.746;11.780;2023-04-24T01:31:22;33.75;;;24.83;;
57826;SDS011;43656;57.746;11.780;2023-04-24T01:33:47;36.88;;;27.15;;
57826;SDS011;43656;57.746;11.780;2023-04-24T01:36:13;30.55;;;24.27;;
57826;SDS011;43656;57.746;11.780;2023-04-24T01:38:39;35.15;;;25.55;;
57826;SDS011;43656;57.746;11.780;2023-04-24T01:41:04;32.25;;;24.88;;
57826;SDS011;43656;57.746;11.780;2023-04-24T01:43:30;34.30;;;25.02;;
57826;SDS011;43656;57.746;11.780;2023-04-24T01:45:56;31.08;;;23.77;;
57826;SDS011;43656;57.746;11.780;2023-04-24T01:48:22;32.08;;;23.45;;
57826;SDS011;43656;57.746;11.780;2023-04-24T01:50:48;31.63;;;23.42;;
57826;SDS011;43656;57.746;11.780;2023-04-24T01:53:13;28.52;;;22.75;;
57826;SDS011;43656;57.746;11.780;2023-04-24T01:55:38;27.75;;;23.17;;
57826;SDS011;43656;57.746;11.780;2023-04-24T01:58:04;30.17;;;24.00;;
57826;SDS011;43656;57.746;11.780;2023-04-24T02:00:30;27.42;;;22.92;;
57826;SDS011;43656;57.746;11.780;2023-04-24T02:02:55;29.42;;;22.67;;
57826;SDS011;43656;57.746;11.780;2023-04-24T02:05:21;28.95;;;22.92;;
57826;SDS011;43656;57.746;11.780;2023-04-24T02:07:46;29.42;;;22.55;;
57826;SDS011;43656;57.746;11.780;2023-04-24T02:10:12;28.42;;;21.88;;
57826;SDS011;43656;57.746;11.780;2023-04-24T02:12:37;28.05;;;22.42;;
57826;SDS011;43656;57.746;11.780;2023-04-24T02:15:03;28.15;;;21.92;;
57826;SDS011;43656;57.746;11.780;2023-04-24T02:17:29;29.73;;;21.63;;
57826;SDS011;43656;57.746;11.780;2023-04-24T02:19:55;27.40;;;21.23;;
57826;SDS011;43656;57.746;11.780;2023-04-24T02:22:21;27.85;;;20.90;;
57826;SDS011;43656;57.746;11.780;2023-04-24T02:24:46;27.08;;;21.52;;
57826;SDS011;43656;57.746;11.780;2023-04-24T02:27:12;29.92;;;21.80;;
57826;SDS011;43656;57.746;11.780;2023-04-24T02:29:38;28.35;;;21.45;;
57826;SDS011;43656;57.746;11.780;2023-04-24T02:32:03;27.10;;;21.73;;
57826;SDS011;43656;57.746;11.780;2023-04-24T02:34:29;25.25;;;20.67;;
57826;SDS011;43656;57.746;11.780;2023-04-24T02:36:54;27.98;;;21.38;;
57826;SDS011;43656;57.746;11.780;2023-04-24T02:39:20;25.98;;;21.42;;
57826;SDS011;43656;57.746;11.780;2023-04-24T02:41:45;32.45;;;21.45;;
57826;SDS011;43656;57.746;11.780;2023-04-24T02:44:11;25.40;;;21.25;;
57826;SDS011;43656;57.746;11.780;2023-04-24T02:46:36;30.60;;;22.02;;
57826;SDS011;43656;57.746;11.780;2023-04-24T02:49:02;26.98;;;21.05;;
57826;SDS011;43656;57.746;11.780;2023-04-24T02:51:27;25.35;;;20.77;;
57826;SDS011;43656;57.746;11.780;2023-04-24T02:53:53;27.27;;;20.95;;
57826;SDS011;43656;57.746;11.780;2023-04-24T02:56:19;27.17;;;19.88;;
57826;SDS011;43656;57.746;11.780;2023-04-24T02:58:45;25.30;;;20.42;;
57826;SDS011;43656;57.746;11.780;2023-04-24T03:01:10;25.17;;;19.92;;
57826;SDS011;43656;57.746;11.780;2023-04-24T03:03:36;26.50;;;20.42;;
57826;SDS011;43656;57.746;11.780;2023-04-24T03:06:02;23.73;;;19.70;;
57826;SDS011;43656;57.746;11.780;2023-04-24T03:08:30;25.63;;;20.05;;
57826;SDS011;43656;57.746;11.780;2023-04-24T03:10:56;26.85;;;18.98;;
57826;SDS011;43656;57.746;11.780;2023-04-24T03:13:22;25.10;;;19.63;;
57826;SDS011;43656;57.746;11.780;2023-04-24T03:15:47;25.88;;;19.33;;
57826;SDS011;43656;57.746;11.780;2023-04-24T03:18:13;23.98;;;19.30;;
57826;SDS011;43656;57.746;11.780;2023-04-24T03:20:38;22.52;;;19.08;;
57826;SDS011;43656;57.746;11.780;2023-04-24T03:23:04;21.95;;;18.42;;
57826;SDS011;43656;57.746;11.780;2023-04-24T03:25:29;23.55;;;19.17;;
57826;SDS011;43656;57.746;11.780;2023-04-24T03:27:55;25.85;;;19.27;;
57826;SDS011;43656;57.746;11.780;2023-04-24T03:30:20;22.92;;;19.23;;
57826;SDS011;43656;57.746;11.780;2023-04-24T03:32:46;25.15;;;19.55;;
57826;SDS011;43656;57.746;11.780;2023-04-24T03:35:11;26.05;;;19.20;;
57826;SDS011;43656;57.746;11.780;2023-04-24T03:37:37;26.48;;;19.42;;
57826;SDS011;43656;57.746;11.780;2023-04-24T03:40:02;23.20;;;18.33;;
57826;SDS011;43656;57.746;11.780;2023-04-24T03:42:28;23.02;;;18.35;;
57826;SDS011;43656;57.746;11.780;2023-04-24T03:44:54;26.05;;;18.60;;
57826;SDS011;43656;57.746;11.780;2023-04-24T03:47:19;26.23;;;18.73;;
57826;SDS011;43656;57.746;11.780;2023-04-24T03:49:45;22.25;;;18.45;;
57826;SDS011;43656;57.746;11.780;2023-04-24T03:52:10;23.58;;;18.70;;
57826;SDS011;43656;57.746;11.780;2023-04-24T03:54:35;22.30;;;18.90;;
57826;SDS011;43656;57.746;11.780;2023-04-24T03:57:01;22.15;;;17.90;;
57826;SDS011;43656;57.746;11.780;2023-04-24T03:59:27;21.98;;;17.63;;
57826;SDS011;43656;57.746;11.780;2023-04-24T04:01:52;23.30;;;18.02;;
57826;SDS011;43656;57.746;11.780;2023-04-24T04:04:17;22.90;;;17.77;;
57826;SDS011;43656;57.746;11.780;2023-04-24T04:06:43;22.83;;;17.40;;
57826;SDS011;43656;57.746;11.780;2023-04-24T04:09:09;21.75;;;17.23;;
57826;SDS011;43656;57.746;11.780;2023-04-24T04:11:35;24.30;;;18.00;;
57826;SDS011;43656;57.746;11.780;2023-04-24T04:14:00;21.23;;;17.23;;
57826;SDS011;43656;57.746;11.780;2023-04-24T04:16:26;24.83;;;18.38;;
57826;SDS011;43656;57.746;11.780;2023-04-24T04:18:51;23.02;;;16.35;;
57826;SDS011;43656;57.746;11.780;2023-04-24T04:21:16;21.50;;;17.50;;
57826;SDS011;43656;57.746;11.780;2023-04-24T04:23:42;22.63;;;17.85;;
57826;SDS011;43656;57.746;11.780;2023-04-24T04:26:07;23.85;;;16.40;;
57826;SDS011;43656;57.746;11.780;2023-04-24T04:28:33;21.10;;;16.23;;
57826;SDS011;43656;57.746;11.780;2023-04-24T04:30:59;28.20;;;16.52;;
57826;SDS011;43656;57.746;11.780;2023-04-24T04:33:25;21.42;;;15.98;;
57826;SDS011;43656;57.746;11.780;2023-04-24T04:35:51;21.10;;;16.30;;
57826;SDS011;43656;57.746;11.780;2023-04-24T04:38:18;21.60;;;15.27;;
57826;SDS011;43656;57.746;11.780;2023-04-24T04:40:45;22.23;;;16.02;;
57826;SDS011;43656;57.746;11.780;2023-04-24T04:43:11;24.52;;;15.90;;
57826;SDS011;43656;57.746;11.780;2023-04-24T04:45:38;23.88;;;15.63;;
57826;SDS011;43656;57.746;11.780;2023-04-24T04:48:05;18.88;;;15.40;;
57826;SDS011;43656;57.746;11.780;2023-04-24T04:50:32;23.10;;;15.20;;
57826;SDS011;43656;57.746;11.780;2023-04-24T04:52:57;21.02;;;14.43;;
57826;SDS011;43656;57.746;11.780;2023-04-24T04:55:23;22.88;;;14.85;;
57826;SDS011;43656;57.746;11.780;2023-04-24T04:57:48;20.15;;;15.18;;
57826;SDS011;43656;57.746;11.780;2023-04-24T05:00:14;19.88;;;14.32;;
57826;SDS011;43656;57.746;11.780;2023-04-24T05:02:40;22.70;;;13.82;;
57826;SDS011;43656;57.746;11.780;2023-04-24T05:05:06;17.63;;;14.02;;
57826;SDS011;43656;57.746;11.780;2023-04-24T05:07:32;20.95;;;14.43;;
57826;SDS011;43656;57.746;11.780;2023-04-24T05:09:58;20.25;;;13.82;;
57826;SDS011;43656;57.746;11.780;2023-04-24T05:12:23;21.27;;;13.50;;
57826;SDS011;43656;57.746;11.780;2023-04-24T05:14:49;18.00;;;13.90;;
57826;SDS011;43656;57.746;11.780;2023-04-24T05:17:15;18.20;;;13.32;;
57826;SDS011;43656;57.746;11.780;2023-04-24T05:19:41;17.95;;;14.00;;
57826;SDS011;43656;57.746;11.780;2023-04-24T05:22:07;19.55;;;13.10;;
57826;SDS011;43656;57.746;11.780;2023-04-24T05:24:33;18.27;;;13.40;;
57826;SDS011;43656;57.746;11.780;2023-04-24T05:26:59;19.20;;;14.02;;
57826;SDS011;43656;57.746;11.780;2023-04-24T05:29:25;20.30;;;13.30;;
57826;SDS011;43656;57.746;11.780;2023-04-24T05:31:51;24.70;;;13.05;;
57826;SDS011;43656;57.746;11.780;2023-04-24T05:34:17;22.20;;;13.00;;
57826;SDS011;43656;57.746;11.780;2023-04-24T05:36:43;20.25;;;13.85;;
57826;SDS011;43656;57.746;11.780;2023-04-24T05:39:08;20.88;;;13.50;;
57826;SDS011;43656;57.746;11.780;2023-04-24T05:41:34;24.88;;;14.20;;
57826;SDS011;43656;57.746;11.780;2023-04-24T05:43:59;24.63;;;13.52;;
57826;SDS011;43656;57.746;11.780;2023-04-24T05:46:25;23.20;;;13.07;;
57826;SDS011;43656;57.746;11.780;2023-04-24T05:48:50;19.83;;;12.82;;
57826;SDS011;43656;57.746;11.780;2023-04-24T05:51:16;22.08;;;12.88;;
57826;SDS011;43656;57.746;11.780;2023-04-24T05:53:41;20.50;;;13.45;;
57826;SDS011;43656;57.746;11.780;2023-04-24T05:56:07;18.63;;;12.23;;
57826;SDS011;43656;57.746;11.780;2023-04-24T05:58:32;25.27;;;13.30;;
57826;SDS011;43656;57.746;11.780;2023-04-24T06:00:58;20.73;;;12.80;;
57826;SDS011;43656;57.746;11.780;2023-04-24T06:03:25;21.20;;;12.55;;
57826;SDS011;43656;57.746;11.780;2023-04-24T06:05:52;18.63;;;12.30;;
57826;SDS011;43656;57.746;11.780;2023-04-24T06:08:17;19.45;;;12.10;;
57826;SDS011;43656;57.746;11.780;2023-04-24T06:10:43;23.40;;;12.32;;
57826;SDS011;43656;57.746;11.780;2023-04-24T06:13:08;17.58;;;11.65;;
57826;SDS011;43656;57.746;11.780;2023-04-24T06:15:33;21.83;;;11.55;;
57826;SDS011;43656;57.746;11.780;2023-04-24T06:17:59;21.55;;;12.40;;
57826;SDS011;43656;57.746;11.780;2023-04-24T06:20:24;17.77;;;11.82;;
57826;SDS011;43656;57.746;11.780;2023-04-24T06:22:50;14.77;;;10.85;;
57826;SDS011;43656;57.746;11.780;2023-04-24T06:25:16;16.90;;;12.27;;
57826;SDS011;43656;57.746;11.780;2023-04-24T06:27:41;17.85;;;12.23;;
57826;SDS011;43656;57.746;11.780;2023-04-24T06:30:07;23.17;;;12.00;;
57826;SDS011;43656;57.746;11.780;2023-04-24T06:32:33;21.13;;;11.90;;
57826;SDS011;43656;57.746;11.780;2023-04-24T06:34:58;15.35;;;11.45;;
57826;SDS011;43656;57.746;11.780;2023-04-24T06:37:24;16.55;;;11.05;;
57826;SDS011;43656;57.746;11.780;2023-04-24T06:39:49;13.85;;;11.38;;
57826;SDS011;43656;57.746;11.780;2023-04-24T06:42:15;17.67;;;11.40;;
57826;SDS011;43656;57.746;11.780;2023-04-24T06:44:40;14.18;;;11.00;;
57826;SDS011;43656;57.746;11.780;2023-04-24T06:47:09;14.07;;;10.38;;
57826;SDS011;43656;57.746;11.780;2023-04-24T06:49:38;14.90;;;10.95;;
57826;SDS011;43656;57.746;11.780;2023-04-24T06:52:04;15.48;;;11.55;;
57826;SDS011;43656;57.746;11.780;2023-04-24T06:54:31;16.27;;;10.05;;
57826;SDS011;43656;57.746;11.780;2023-04-24T06:56:57;14.18;;;10.25;;
57826;SDS011;43656;57.746;11.780;2023-04-24T06:59:23;13.48;;;10.48;;
57826;SDS011;43656;57.746;11.780;2023-04-24T07:01:49;13.52;;;9.93;;
57826;SDS011;43656;57.746;11.780;2023-04-24T07:04:16;13.07;;;9.98;;
57826;SDS011;43656;57.746;11.780;2023-04-24T07:06:42;13.98;;;9.82;;
57826;SDS011;43656;57.746;11.780;2023-04-24T07:09:08;13.48;;;10.45;;
57826;SDS011;43656;57.746;11.780;2023-04-24T07:11:34;13.45;;;10.60;;
57826;SDS011;43656;57.746;11.780;2023-04-24T07:14:00;15.38;;;10.93;;
57826;SDS011;43656;57.746;11.780;2023-04-24T07:16:25;12.80;;;10.95;;
57826;SDS011;43656;57.746;11.780;2023-04-24T07:18:51;12.98;;;11.57;;
57826;SDS011;43656;57.746;11.780;2023-04-24T07:21:17;12.85;;;11.35;;
57826;SDS011;43656;57.746;11.780;2023-04-24T07:23:42;14.88;;;12.48;;
57826;SDS011;43656;57.746;11.780;2023-04-24T07:26:08;14.98;;;12.65;;
57826;SDS011;43656;57.746;11.780;2023-04-24T07:28:33;16.75;;;13.18;;
57826;SDS011;43656;57.746;11.780;2023-04-24T07:30:58;15.00;;;13.40;;
57826;SDS011;43656;57.746;11.780;2023-04-24T07:33:25;15.27;;;13.38;;
57826;SDS011;43656;57.746;11.780;2023-04-24T07:35:51;14.80;;;13.05;;
57826;SDS011;43656;57.746;11.780;2023-04-24T07:38:17;16.77;;;13.57;;
57826;SDS011;43656;57.746;11.780;2023-04-24T07:40:46;17.88;;;13.88;;
57826;SDS011;43656;57.746;11.780;2023-04-24T07:43:11;15.75;;;14.05;;
57826;SDS011;43656;57.746;11.780;2023-04-24T07:45:36;16.90;;;14.23;;
57826;SDS011;43656;57.746;11.780;2023-04-24T07:48:02;17.42;;;14.52;;
57826;SDS011;43656;57.746;11.780;2023-04-24T07:50:28;18.08;;;15.48;;
57826;SDS011;43656;57.746;11.780;2023-04-24T07:52:53;17.33;;;14.75;;
57826;SDS011;43656;57.746;11.780;2023-04-24T07:55:19;18.42;;;14.27;;
57826;SDS011;43656;57.746;11.780;2023-04-24T07:57:45;17.88;;;14.73;;
57826;SDS011;43656;57.746;11.780;2023-04-24T08:00:10;18.30;;;14.90;;
57826;SDS011;43656;57.746;11.780;2023-04-24T08:02:36;17.73;;;14.75;;
57826;SDS011;43656;57.746;11.780;2023-04-24T08:05:02;18.05;;;15.52;;
57826;SDS011;43656;57.746;11.780;2023-04-24T08:07:28;18.35;;;15.02;;
57826;SDS011;43656;57.746;11.780;2023-04-24T08:09:54;17.73;;;15.18;;
57826;SDS011;43656;57.746;11.780;2023-04-24T08:12:19;20.08;;;16.33;;
57826;SDS011;43656;57.746;11.780;2023-04-24T08:14:45;17.27;;;15.43;;
57826;SDS011;43656;57.746;11.780;2023-04-24T08:17:10;20.17;;;16.67;;
57826;SDS011;43656;57.746;11.780;2023-04-24T08:19:35;20.95;;;16.00;;
57826;SDS011;43656;57.746;11.780;2023-04-24T08:22:01;20.40;;;16.25;;
57826;SDS011;43656;57.746;11.780;2023-04-24T08:24:27;19.17;;;15.10;;
57826;SDS011;43656;57.746;11.780;2023-04-24T08:26:52;20.88;;;16.50;;
57826;SDS011;43656;57.746;11.780;2023-04-24T08:29:20;22.08;;;16.25;;
57826;SDS011;43656;57.746;11.780;2023-04-24T08:31:46;21.75;;;15.75;;
57826;SDS011;43656;57.746;11.780;2023-04-24T08:34:11;20.80;;;16.85;;
57826;SDS011;43656;57.746;11.780;2023-04-24T08:36:37;19.73;;;16.10;;
57826;SDS011;43656;57.746;11.780;2023-04-24T08:39:02;20.17;;;16.42;;
57826;SDS011;43656;57.746;11.780;2023-04-24T08:41:28;20.27;;;16.00;;
57826;SDS011;43656;57.746;11.780;2023-04-24T08:43:55;21.25;;;15.75;;
57826;SDS011;43656;57.746;11.780;2023-04-24T08:46:23;21.98;;;16.52;;
57826;SDS011;43656;57.746;11.780;2023-04-24T08:48:49;19.80;;;16.23;;
57826;SDS011;43656;57.746;11.780;2023-04-24T08:51:15;19.90;;;16.05;;
57826;SDS011;43656;57.746;11.780;2023-04-24T08:53:42;19.52;;;16.55;;
57826;SDS011;43656;57.746;11.780;2023-04-24T08:56:08;20.88;;;15.90;;
57826;SDS011;43656;57.746;11.780;2023-04-24T08:58:34;19.50;;;16.00;;
57826;SDS011;43656;57.746;11.780;2023-04-24T09:01:00;19.60;;;15.30;;
57826;SDS011;43656;57.746;11.780;2023-04-24T09:03:27;18.08;;;15.82;;
57826;SDS011;43656;57.746;11.780;2023-04-24T09:05:53;18.40;;;14.85;;
57826;SDS011;43656;57.746;11.780;2023-04-24T09:08:20;16.95;;;13.60;;
57826;SDS011;43656;57.746;11.780;2023-04-24T09:10:49;16.38;;;12.65;;
57826;SDS011;43656;57.746;11.780;2023-04-24T09:13:15;15.32;;;12.25;;
57826;SDS011;43656;57.746;11.780;2023-04-24T09:15:42;15.60;;;11.75;;
57826;SDS011;43656;57.746;11.780;2023-04-24T09:18:07;17.40;;;12.50;;
57826;SDS011;43656;57.746;11.780;2023-04-24T09:20:33;13.65;;;10.85;;
57826;SDS011;43656;57.746;11.780;2023-04-24T09:23:01;15.25;;;11.45;;
57826;SDS011;43656;57.746;11.780;2023-04-24T09:25:33;14.52;;;11.25;;
57826;SDS011;43656;57.746;11.780;2023-04-24T09:28:01;16.75;;;10.60;;
57826;SDS011;43656;57.746;11.780;2023-04-24T09:30:28;17.77;;;13.40;;
57826;SDS011;43656;57.746;11.780;2023-04-24T09:33:13;16.92;;;12.48;;
57826;SDS011;43656;57.746;11.780;2023-04-24T09:35:41;11.98;;;9.35;;
57826;SDS011;43656;57.746;11.780;2023-04-24T09:38:16;9.63;;;6.90;;
57826;SDS011;43656;57.746;11.780;2023-04-24T09:40:41;8.90;;;7.35;;
57826;SDS011;43656;57.746;11.780;2023-04-24T09:43:10;10.45;;;7.70;;
57826;SDS011;43656;57.746;11.780;2023-04-24T09:45:37;11.80;;;7.25;;
57826;SDS011;43656;57.746;11.780;2023-04-24T09:48:04;9.05;;;6.85;;
57826;SDS011;43656;57.746;11.780;2023-04-24T09:50:31;12.38;;;6.82;;
57826;SDS011;43656;57.746;11.780;2023-04-24T09:53:03;9.60;;;6.80;;
57826;SDS011;43656;57.746;11.780;2023-04-24T09:55:30;10.95;;;6.85;;
57826;SDS011;43656;57.746;11.780;2023-04-24T09:58:00;11.60;;;6.50;;
57826;SDS011;43656;57.746;11.780;2023-04-24T10:00:27;8.68;;;6.68;;
57826;SDS011;43656;57.746;11.780;2023-04-24T10:03:03;8.65;;;6.85;;
57826;SDS011;43656;57.746;11.780;2023-04-24T10:05:31;9.45;;;6.82;;
57826;SDS011;43656;57.746;11.780;2023-04-24T10:08:18;9.27;;;7.50;;
57826;SDS011;43656;57.746;11.780;2023-04-24T10:10:43;11.50;;;7.47;;
57826;SDS011;43656;57.746;11.780;2023-04-24T10:13:10;7.97;;;7.18;;
57826;SDS011;43656;57.746;11.780;2023-04-24T10:15:37;8.48;;;6.25;;
57826;SDS011;43656;57.746;11.780;2023-04-24T10:18:04;8.93;;;7.38;;
57826;SDS011;43656;57.746;11.780;2023-04-24T10:20:31;10.13;;;7.43;;
57826;SDS011;43656;57.746;11.780;2023-04-24T10:22:58;10.65;;;7.97;;
57826;SDS011;43656;57.746;11.780;2023-04-24T10:25:25;9.00;;;8.10;;
57826;SDS011;43656;57.746;11.780;2023-04-24T10:27:59;10.38;;;7.78;;
57826;SDS011;43656;57.746;11.780;2023-04-24T10:30:27;10.00;;;7.70;;
57826;SDS011;43656;57.746;11.780;2023-04-24T10:32:53;9.57;;;7.63;;
57826;SDS011;43656;57.746;11.780;2023-04-24T10:35:19;9.95;;;8.10;;
57826;SDS011;43656;57.746;11.780;2023-04-24T10:37:50;9.68;;;7.80;;
57826;SDS011;43656;57.746;11.780;2023-04-24T10:40:27;7.77;;;6.83;;
57826;SDS011;43656;57.746;11.780;2023-04-24T10:42:56;9.68;;;7.05;;
57826;SDS011;43656;57.746;11.780;2023-04-24T10:45:22;9.75;;;7.18;;
57826;SDS011;43656;57.746;11.780;2023-04-24T10:47:52;9.95;;;7.40;;
57826;SDS011;43656;57.746;11.780;2023-04-24T10:50:18;8.48;;;6.65;;
57826;SDS011;43656;57.746;11.780;2023-04-24T10:52:44;9.77;;;7.20;;
57826;SDS011;43656;57.746;11.780;2023-04-24T10:55:12;12.77;;;7.28;;
57826;SDS011;43656;57.746;11.780;2023-04-24T10:57:38;9.13;;;7.30;;
57826;SDS011;43656;57.746;11.780;2023-04-24T11:00:12;9.07;;;6.68;;
57826;SDS011;43656;57.746;11.780;2023-04-24T11:02:38;8.40;;;6.38;;
57826;SDS011;43656;57.746;11.780;2023-04-24T11:05:05;9.88;;;6.55;;
57826;SDS011;43656;57.746;11.780;2023-04-24T11:10:55;10.27;;;6.82;;
57826;SDS011;43656;57.746;11.780;2023-04-24T11:13:23;7.78;;;6.45;;
57826;SDS011;43656;57.746;11.780;2023-04-24T11:19:05;9.52;;;6.28;;
57826;SDS011;43656;57.746;11.780;2023-04-24T11:21:41;10.98;;;6.70;;
57826;SDS011;43656;57.746;11.780;2023-04-24T11:24:25;7.50;;;6.15;;
57826;SDS011;43656;57.746;11.780;2023-04-24T11:26:56;8.25;;;5.82;;
57826;SDS011;43656;57.746;11.780;2023-04-24T11:34:41;9.10;;;5.97;;
57826;SDS011;43656;57.746;11.780;2023-04-24T11:37:06;7.10;;;5.50;;
57826;SDS011;43656;57.746;11.780;2023-04-24T11:39:36;6.88;;;5.45;;
57826;SDS011;43656;57.746;11.780;2023-04-24T11:42:02;6.47;;;5.57;;
57826;SDS011;43656;57.746;11.780;2023-04-24T11:44:28;7.75;;;5.55;;
57826;SDS011;43656;57.746;11.780;2023-04-24T11:46:55;7.45;;;5.10;;
57826;SDS011;43656;57.746;11.780;2023-04-24T11:49:21;7.47;;;4.68;;
57826;SDS011;43656;57.746;11.780;2023-04-24T11:51:46;8.52;;;5.35;;
57826;SDS011;43656;57.746;11.780;2023-04-24T11:54:12;14.35;;;5.28;;
57826;SDS011;43656;57.746;11.780;2023-04-24T11:56:38;7.97;;;4.93;;
57826;SDS011;43656;57.746;11.780;2023-04-24T11:59:04;7.03;;;4.45;;
57826;SDS011;43656;57.746;11.780;2023-04-24T12:01:29;7.57;;;4.50;;
57826;SDS011;43656;57.746;11.780;2023-04-24T12:03:59;5.10;;;4.20;;
57826;SDS011;43656;57.746;11.780;2023-04-24T12:06:25;6.05;;;4.68;;
57826;SDS011;43656;57.746;11.780;2023-04-24T12:08:51;5.32;;;4.00;;
57826;SDS011;43656;57.746;11.780;2023-04-24T12:11:17;4.82;;;4.28;;
57826;SDS011;43656;57.746;11.780;2023-04-24T12:13:43;5.07;;;4.18;;
57826;SDS011;43656;57.746;11.780;2023-04-24T12:16:10;4.35;;;3.90;;
57826;SDS011;43656;57.746;11.780;2023-04-24T12:18:40;5.35;;;4.20;;
57826;SDS011;43656;57.746;11.780;2023-04-24T12:21:20;5.18;;;3.97;;
57826;SDS011;43656;57.746;11.780;2023-04-24T12:23:53;5.75;;;4.22;;
57826;SDS011;43656;57.746;11.780;2023-04-24T12:26:20;5.45;;;4.30;;
57826;SDS011;43656;57.746;11.780;2023-04-24T12:28:47;6.70;;;4.30;;
57826;SDS011;43656;57.746;11.780;2023-04-24T12:31:14;5.43;;;4.05;;
57826;SDS011;43656;57.746;11.780;2023-04-24T12:33:45;6.38;;;3.90;;
57826;SDS011;43656;57.746;11.780;2023-04-24T12:36:11;4.47;;;4.07;;
57826;SDS011;43656;57.746;11.780;2023-04-24T12:38:37;5.78;;;3.83;;
57826;SDS011;43656;57.746;11.780;2023-04-24T12:41:06;4.82;;;4.30;;
57826;SDS011;43656;57.746;11.780;2023-04-24T12:43:33;5.63;;;4.18;;
57826;SDS011;43656;57.746;11.780;2023-04-24T12:45:59;4.47;;;3.83;;
57826;SDS011;43656;57.746;11.780;2023-04-24T12:48:26;5.10;;;4.03;;
57826;SDS011;43656;57.746;11.780;2023-04-24T12:50:52;6.43;;;3.90;;
57826;SDS011;43656;57.746;11.780;2023-04-24T12:53:18;7.25;;;4.00;;
57826;SDS011;43656;57.746;11.780;2023-04-24T12:55:43;4.85;;;3.40;;
57826;SDS011;43656;57.746;11.780;2023-04-24T12:58:17;4.93;;;3.67;;
57826;SDS011;43656;57.746;11.780;2023-04-24T13:00:46;6.20;;;3.53;;
57826;SDS011;43656;57.746;11.780;2023-04-24T13:03:12;6.13;;;3.47;;
57826;SDS011;43656;57.746;11.780;2023-04-24T13:05:38;4.15;;;3.70;;
57826;SDS011;43656;57.746;11.780;2023-04-24T13:08:03;6.35;;;3.72;;
57826;SDS011;43656;57.746;11.780;2023-04-24T13:10:29;5.43;;;3.83;;
57826;SDS011;43656;57.746;11.780;2023-04-24T13:12:55;4.57;;;4.00;;
57826;SDS011;43656;57.746;11.780;2023-04-24T13:15:20;4.50;;;3.72;;
57826;SDS011;43656;57.746;11.780;2023-04-24T13:17:46;5.32;;;3.95;;
57826;SDS011;43656;57.746;11.780;2023-04-24T13:20:11;5.75;;;4.28;;
57826;SDS011;43656;57.746;11.780;2023-04-24T13:22:37;5.95;;;3.83;;
57826;SDS011;43656;57.746;11.780;2023-04-24T13:25:02;6.22;;;4.47;;
57826;SDS011;43656;57.746;11.780;2023-04-24T13:27:28;4.80;;;4.00;;
57826;SDS011;43656;57.746;11.780;2023-04-24T13:29:53;6.97;;;4.65;;
57826;SDS011;43656;57.746;11.780;2023-04-24T13:32:19;8.77;;;4.78;;
57826;SDS011;43656;57.746;11.780;2023-04-24T13:34:45;6.20;;;4.90;;
57826;SDS011;43656;57.746;11.780;2023-04-24T13:37:10;7.13;;;5.13;;
57826;SDS011;43656;57.746;11.780;2023-04-24T13:39:36;6.72;;;5.15;;
57826;SDS011;43656;57.746;11.780;2023-04-24T13:42:02;7.18;;;5.50;;
57826;SDS011;43656;57.746;11.780;2023-04-24T13:44:27;9.77;;;5.70;;
57826;SDS011;43656;57.746;11.780;2023-04-24T13:46:54;6.07;;;5.40;;
57826;SDS011;43656;57.746;11.780;2023-04-24T13:49:22;7.35;;;5.50;;
57826;SDS011;43656;57.746;11.780;2023-04-24T13:51:50;8.05;;;5.72;;
57826;SDS011;43656;57.746;11.780;2023-04-24T13:54:16;8.48;;;6.28;;
57826;SDS011;43656;57.746;11.780;2023-04-24T13:56:42;9.23;;;6.50;;
57826;SDS011;43656;57.746;11.780;2023-04-24T13:59:08;8.18;;;6.65;;
57826;SDS011;43656;57.746;11.780;2023-04-24T14:01:33;12.35;;;6.60;;
57826;SDS011;43656;57.746;11.780;2023-04-24T14:03:59;8.60;;;6.88;;
57826;SDS011;43656;57.746;11.780;2023-04-24T14:06:25;11.80;;;7.00;;
57826;SDS011;43656;57.746;11.780;2023-04-24T14:08:50;9.25;;;6.93;;
57826;SDS011;43656;57.746;11.780;2023-04-24T14:11:17;9.23;;;7.13;;
57826;SDS011;43656;57.746;11.780;2023-04-24T14:13:43;7.82;;;7.00;;
57826;SDS011;43656;57.746;11.780;2023-04-24T14:16:09;8.75;;;6.78;;
57826;SDS011;43656;57.746;11.780;2023-04-24T14:18:35;10.02;;;6.68;;
57826;SDS011;43656;57.746;11.780;2023-04-24T14:21:01;8.70;;;7.22;;
57826;SDS011;43656;57.746;11.780;2023-04-24T14:23:28;9.68;;;6.88;;